sensor_id;sensor_type;location;lat;lon;timestamp;P1;durP1;ratioP1;P2;durP2;ratioP2
57718;SDS011;43561;50.090;18.522;2022-11-15T00:04:47;53.58;;;19.95;;
57718;SDS011;43561;50.090;18.522;2022-11-15T00:15:08;42.17;;;15.57;;
57718;SDS011;43561;50.090;18.522;2022-11-15T00:25:28;40.45;;;16.70;;
57718;SDS011;43561;50.090;18.522;2022-11-15T00:35:49;32.35;;;14.32;;
57718;SDS011;43561;50.090;18.522;2022-11-15T00:46:09;39.85;;;22.13;;
57718;SDS011;43561;50.090;18.522;2022-11-15T00:56:30;56.03;;;27.10;;
57718;SDS011;43561;50.090;18.522;2022-11-15T01:06:50;42.63;;;23.05;;
57718;SDS011;43561;50.090;18.522;2022-11-15T01:17:11;48.83;;;17.65;;
57718;SDS011;43561;50.090;18.522;2022-11-15T01:27:32;53.45;;;19.98;;
57718;SDS011;43561;50.090;18.522;2022-11-15T01:37:52;42.92;;;21.88;;
57718;SDS011;43561;50.090;18.522;2022-11-15T01:48:13;47.58;;;24.42;;
57718;SDS011;43561;50.090;18.522;2022-11-15T01:58:33;53.72;;;25.67;;
57718;SDS011;43561;50.090;18.522;2022-11-15T02:08:56;34.30;;;19.23;;
57718;SDS011;43561;50.090;18.522;2022-11-15T02:50:49;37.85;;;19.88;;
57718;SDS011;43561;50.090;18.522;2022-11-15T03:01:30;45.55;;;17.30;;
57718;SDS011;43561;50.090;18.522;2022-11-15T03:22:44;27.70;;;17.93;;
57718;SDS011;43561;50.090;18.522;2022-11-15T03:33:06;44.70;;;23.30;;
57718;SDS011;43561;50.090;18.522;2022-11-15T03:54:07;76.20;;;20.77;;
57718;SDS011;43561;50.090;18.522;2022-11-15T04:04:28;68.03;;;27.35;;
57718;SDS011;43561;50.090;18.522;2022-11-15T04:14:48;67.45;;;25.65;;
57718;SDS011;43561;50.090;18.522;2022-11-15T04:25:09;65.90;;;25.48;;
57718;SDS011;43561;50.090;18.522;2022-11-15T04:35:30;52.35;;;24.27;;
57718;SDS011;43561;50.090;18.522;2022-11-15T04:45:50;43.28;;;23.30;;
57718;SDS011;43561;50.090;18.522;2022-11-15T04:56:11;71.50;;;25.08;;
57718;SDS011;43561;50.090;18.522;2022-11-15T05:06:31;49.10;;;26.52;;
57718;SDS011;43561;50.090;18.522;2022-11-15T05:16:52;49.95;;;27.73;;
57718;SDS011;43561;50.090;18.522;2022-11-15T05:27:13;48.90;;;29.52;;
57718;SDS011;43561;50.090;18.522;2022-11-15T05:37:33;73.93;;;37.40;;
57718;SDS011;43561;50.090;18.522;2022-11-15T05:47:55;94.00;;;45.58;;
57718;SDS011;43561;50.090;18.522;2022-11-15T05:58:19;93.63;;;47.22;;
57718;SDS011;43561;50.090;18.522;2022-11-15T06:08:39;77.95;;;41.90;;
57718;SDS011;43561;50.090;18.522;2022-11-15T06:19:00;73.47;;;41.97;;
57718;SDS011;43561;50.090;18.522;2022-11-15T06:29:20;60.20;;;41.15;;
57718;SDS011;43561;50.090;18.522;2022-11-15T06:39:42;75.55;;;44.28;;
57718;SDS011;43561;50.090;18.522;2022-11-15T06:50:02;73.65;;;39.45;;
57718;SDS011;43561;50.090;18.522;2022-11-15T07:00:23;96.75;;;50.33;;
57718;SDS011;43561;50.090;18.522;2022-11-15T07:10:44;109.40;;;53.15;;
57718;SDS011;43561;50.090;18.522;2022-11-15T07:21:06;136.05;;;69.60;;
57718;SDS011;43561;50.090;18.522;2022-11-15T07:31:28;137.75;;;63.17;;
57718;SDS011;43561;50.090;18.522;2022-11-15T07:41:48;169.77;;;65.00;;
57718;SDS011;43561;50.090;18.522;2022-11-15T07:52:09;148.70;;;76.78;;
57718;SDS011;43561;50.090;18.522;2022-11-15T08:02:30;124.63;;;58.70;;
57718;SDS011;43561;50.090;18.522;2022-11-15T08:13:00;107.53;;;55.70;;
57718;SDS011;43561;50.090;18.522;2022-11-15T08:23:23;104.72;;;51.25;;
57718;SDS011;43561;50.090;18.522;2022-11-15T08:33:44;74.65;;;41.63;;
57718;SDS011;43561;50.090;18.522;2022-11-15T08:44:04;79.22;;;36.80;;
57718;SDS011;43561;50.090;18.522;2022-11-15T08:54:25;60.38;;;34.30;;
57718;SDS011;43561;50.090;18.522;2022-11-15T09:04:46;73.82;;;36.42;;
57718;SDS011;43561;50.090;18.522;2022-11-15T09:15:06;74.18;;;32.58;;
57718;SDS011;43561;50.090;18.522;2022-11-15T09:25:28;45.70;;;24.35;;
57718;SDS011;43561;50.090;18.522;2022-11-15T09:35:48;37.97;;;22.52;;
57718;SDS011;43561;50.090;18.522;2022-11-15T09:57:02;51.53;;;24.80;;
57718;SDS011;43561;50.090;18.522;2022-11-15T10:38:13;34.15;;;19.65;;
57718;SDS011;43561;50.090;18.522;2022-11-15T10:58:27;33.63;;;20.90;;
57718;SDS011;43561;50.090;18.522;2022-11-15T11:08:35;36.42;;;20.80;;
57718;SDS011;43561;50.090;18.522;2022-11-15T11:28:46;42.95;;;20.88;;
57718;SDS011;43561;50.090;18.522;2022-11-15T11:39:20;44.30;;;24.05;;
57718;SDS011;43561;50.090;18.522;2022-11-15T12:00:22;39.22;;;19.58;;
57718;SDS011;43561;50.090;18.522;2022-11-15T12:10:24;41.28;;;19.40;;
57718;SDS011;43561;50.090;18.522;2022-11-15T12:20:35;41.40;;;20.73;;
57718;SDS011;43561;50.090;18.522;2022-11-15T12:30:46;39.95;;;21.77;;
57718;SDS011;43561;50.090;18.522;2022-11-15T12:41:13;41.17;;;22.05;;
57718;SDS011;43561;50.090;18.522;2022-11-15T12:51:19;36.50;;;19.58;;
57718;SDS011;43561;50.090;18.522;2022-11-15T13:11:43;41.78;;;21.63;;
57718;SDS011;43561;50.090;18.522;2022-11-15T13:21:47;39.17;;;19.65;;
57718;SDS011;43561;50.090;18.522;2022-11-15T13:31:50;41.85;;;23.00;;
57718;SDS011;43561;50.090;18.522;2022-11-15T13:41:53;50.28;;;21.55;;
57718;SDS011;43561;50.090;18.522;2022-11-15T13:51:55;46.97;;;21.25;;
57718;SDS011;43561;50.090;18.522;2022-11-15T14:01:58;35.00;;;20.13;;
57718;SDS011;43561;50.090;18.522;2022-11-15T14:12:22;52.42;;;24.30;;
57718;SDS011;43561;50.090;18.522;2022-11-15T14:22:34;53.37;;;26.30;;
57718;SDS011;43561;50.090;18.522;2022-11-15T14:32:43;47.95;;;23.13;;
57718;SDS011;43561;50.090;18.522;2022-11-15T14:42:47;54.63;;;26.92;;
57718;SDS011;43561;50.090;18.522;2022-11-15T14:52:50;47.00;;;22.83;;
57718;SDS011;43561;50.090;18.522;2022-11-15T15:02:53;64.05;;;27.38;;
57718;SDS011;43561;50.090;18.522;2022-11-15T15:12:55;51.47;;;24.55;;
57718;SDS011;43561;50.090;18.522;2022-11-15T15:22:57;75.75;;;35.25;;
57718;SDS011;43561;50.090;18.522;2022-11-15T15:32:59;96.35;;;42.65;;
57718;SDS011;43561;50.090;18.522;2022-11-15T15:43:01;93.53;;;41.65;;
57718;SDS011;43561;50.090;18.522;2022-11-15T15:53:03;111.97;;;47.90;;
57718;SDS011;43561;50.090;18.522;2022-11-15T16:03:06;99.15;;;44.25;;
57718;SDS011;43561;50.090;18.522;2022-11-15T16:13:08;120.55;;;60.03;;
57718;SDS011;43561;50.090;18.522;2022-11-15T16:23:11;121.53;;;58.95;;
57718;SDS011;43561;50.090;18.522;2022-11-15T16:33:14;139.52;;;62.88;;
57718;SDS011;43561;50.090;18.522;2022-11-15T16:43:16;86.38;;;47.30;;
57718;SDS011;43561;50.090;18.522;2022-11-15T16:53:18;86.93;;;39.35;;
57718;SDS011;43561;50.090;18.522;2022-11-15T17:03:23;84.15;;;41.70;;
57718;SDS011;43561;50.090;18.522;2022-11-15T17:13:25;98.07;;;47.55;;
57718;SDS011;43561;50.090;18.522;2022-11-15T17:23:27;90.95;;;43.33;;
57718;SDS011;43561;50.090;18.522;2022-11-15T17:33:29;109.35;;;44.30;;
57718;SDS011;43561;50.090;18.522;2022-11-15T17:43:32;96.88;;;43.58;;
57718;SDS011;43561;50.090;18.522;2022-11-15T17:53:35;103.50;;;39.50;;
57718;SDS011;43561;50.090;18.522;2022-11-15T18:03:39;98.57;;;42.85;;
57718;SDS011;43561;50.090;18.522;2022-11-15T18:13:44;71.05;;;36.38;;
57718;SDS011;43561;50.090;18.522;2022-11-15T18:23:54;80.70;;;38.67;;
57718;SDS011;43561;50.090;18.522;2022-11-15T18:33:57;95.88;;;41.45;;
57718;SDS011;43561;50.090;18.522;2022-11-15T18:44:00;89.20;;;39.80;;
57718;SDS011;43561;50.090;18.522;2022-11-15T18:54:03;89.10;;;42.90;;
57718;SDS011;43561;50.090;18.522;2022-11-15T19:04:06;78.45;;;34.88;;
57718;SDS011;43561;50.090;18.522;2022-11-15T19:14:11;80.95;;;35.42;;
57718;SDS011;43561;50.090;18.522;2022-11-15T19:24:17;84.72;;;36.00;;
57718;SDS011;43561;50.090;18.522;2022-11-15T19:34:20;100.93;;;45.28;;
57718;SDS011;43561;50.090;18.522;2022-11-15T19:44:22;82.60;;;34.67;;
57718;SDS011;43561;50.090;18.522;2022-11-15T19:54:23;102.20;;;47.55;;
57718;SDS011;43561;50.090;18.522;2022-11-15T20:04:25;108.13;;;48.67;;
57718;SDS011;43561;50.090;18.522;2022-11-15T20:14:27;113.90;;;54.45;;
57718;SDS011;43561;50.090;18.522;2022-11-15T20:24:29;112.15;;;54.35;;
57718;SDS011;43561;50.090;18.522;2022-11-15T20:34:31;126.18;;;54.70;;
57718;SDS011;43561;50.090;18.522;2022-11-15T20:44:33;154.85;;;62.60;;
57718;SDS011;43561;50.090;18.522;2022-11-15T20:54:35;183.38;;;67.13;;
57718;SDS011;43561;50.090;18.522;2022-11-15T21:04:37;188.30;;;74.57;;
57718;SDS011;43561;50.090;18.522;2022-11-15T21:14:39;150.27;;;62.53;;
57718;SDS011;43561;50.090;18.522;2022-11-15T21:24:41;127.55;;;61.88;;
57718;SDS011;43561;50.090;18.522;2022-11-15T21:34:43;137.73;;;64.35;;
57718;SDS011;43561;50.090;18.522;2022-11-15T21:44:45;150.23;;;67.72;;
57718;SDS011;43561;50.090;18.522;2022-11-15T21:54:47;146.38;;;69.45;;
57718;SDS011;43561;50.090;18.522;2022-11-15T22:15:47;128.32;;;63.08;;
57718;SDS011;43561;50.090;18.522;2022-11-15T22:25:49;147.57;;;64.15;;
57718;SDS011;43561;50.090;18.522;2022-11-15T22:35:52;122.10;;;57.80;;
57718;SDS011;43561;50.090;18.522;2022-11-15T22:45:56;153.40;;;61.25;;
57718;SDS011;43561;50.090;18.522;2022-11-15T22:56:00;138.20;;;58.13;;
57718;SDS011;43561;50.090;18.522;2022-11-15T23:06:04;136.43;;;57.05;;
57718;SDS011;43561;50.090;18.522;2022-11-15T23:16:08;141.75;;;55.28;;
57718;SDS011;43561;50.090;18.522;2022-11-15T23:26:11;144.98;;;59.00;;
57718;SDS011;43561;50.090;18.522;2022-11-15T23:36:13;113.47;;;55.63;;
57718;SDS011;43561;50.090;18.522;2022-11-15T23:46:15;127.72;;;52.05;;
57718;SDS011;43561;50.090;18.522;2022-11-15T23:56:18;122.50;;;56.50;;
